Terminal Aerodrome Forecast
Issued by NWS Northern Indiana

Home | Current Version | Previous Version | Text Only | Print | Product List | Glossary On
Versions: 1 2 3 4 5 6 7 8 9 10 11 12
000
FTUS43 KIWX 040543
TAFFWA
TAF
KFWA 040543Z 0406/0506 VRB03KT P6SM OVC025
     FM041400 11005KT P6SM SCT025 OVC100
     FM041800 12008KT 6SM -RA BR OVC060
     FM042000 11008KT 3SM -RA BR OVC015
     FM042300 13005KT 1 1/2SM -RASN BR OVC008
     FM050400 24008KT P6SM OVC010=

USA.gov is the U.S. government's official web portal to all federal, state and local government web resources and services.